sensor_id;sensor_type;location;lat;lon;timestamp;pressure;altitude;pressure_sealevel;temperature
19196;BMP280;9730;48.926;11.376;2022-07-22T00:00:24;97667.47;;;17.33
19196;BMP280;9730;48.926;11.376;2022-07-22T00:02:50;97669.97;;;17.46
19196;BMP280;9730;48.926;11.376;2022-07-22T00:05:17;97663.47;;;17.42
19196;BMP280;9730;48.926;11.376;2022-07-22T00:07:43;97676.09;;;17.43
19196;BMP280;9730;48.926;11.376;2022-07-22T00:10:10;97662.56;;;17.43
19196;BMP280;9730;48.926;11.376;2022-07-22T00:12:37;97663.28;;;17.32
19196;BMP280;9730;48.926;11.376;2022-07-22T00:15:07;97665.38;;;17.27
19196;BMP280;9730;48.926;11.376;2022-07-22T00:17:34;97658.19;;;17.20
19196;BMP280;9730;48.926;11.376;2022-07-22T00:20:02;97663.13;;;17.23
19196;BMP280;9730;48.926;11.376;2022-07-22T00:22:28;97661.78;;;17.17
19196;BMP280;9730;48.926;11.376;2022-07-22T00:24:55;97658.41;;;17.29
19196;BMP280;9730;48.926;11.376;2022-07-22T00:27:21;97656.50;;;17.20
19196;BMP280;9730;48.926;11.376;2022-07-22T00:29:48;97664.06;;;17.09
19196;BMP280;9730;48.926;11.376;2022-07-22T00:32:16;97659.25;;;17.05
19196;BMP280;9730;48.926;11.376;2022-07-22T00:34:43;97652.25;;;16.96
19196;BMP280;9730;48.926;11.376;2022-07-22T00:37:10;97654.75;;;16.60
19196;BMP280;9730;48.926;11.376;2022-07-22T00:39:36;97650.38;;;16.75
19196;BMP280;9730;48.926;11.376;2022-07-22T00:42:03;97656.28;;;16.75
19196;BMP280;9730;48.926;11.376;2022-07-22T00:44:29;97660.97;;;16.69
19196;BMP280;9730;48.926;11.376;2022-07-22T00:46:56;97657.53;;;16.57
19196;BMP280;9730;48.926;11.376;2022-07-22T00:49:24;97648.22;;;16.69
19196;BMP280;9730;48.926;11.376;2022-07-22T00:51:50;97650.75;;;16.81
19196;BMP280;9730;48.926;11.376;2022-07-22T00:54:17;97648.63;;;16.75
19196;BMP280;9730;48.926;11.376;2022-07-22T00:56:44;97648.97;;;16.71
19196;BMP280;9730;48.926;11.376;2022-07-22T00:59:13;97651.16;;;16.88
19196;BMP280;9730;48.926;11.376;2022-07-22T01:01:39;97649.88;;;16.57
19196;BMP280;9730;48.926;11.376;2022-07-22T01:04:06;97640.38;;;16.72
19196;BMP280;9730;48.926;11.376;2022-07-22T01:06:34;97647.00;;;16.74
19196;BMP280;9730;48.926;11.376;2022-07-22T01:09:01;97645.69;;;16.69
19196;BMP280;9730;48.926;11.376;2022-07-22T01:11:27;97644.47;;;16.62
19196;BMP280;9730;48.926;11.376;2022-07-22T01:13:55;97646.44;;;16.46
19196;BMP280;9730;48.926;11.376;2022-07-22T01:16:22;97644.91;;;16.44
19196;BMP280;9730;48.926;11.376;2022-07-22T01:18:49;97646.66;;;16.31
19196;BMP280;9730;48.926;11.376;2022-07-22T01:21:17;97646.94;;;16.39
19196;BMP280;9730;48.926;11.376;2022-07-22T01:23:44;97640.22;;;16.38
19196;BMP280;9730;48.926;11.376;2022-07-22T01:26:11;97633.41;;;16.38
19196;BMP280;9730;48.926;11.376;2022-07-22T01:28:38;97635.13;;;16.38
19196;BMP280;9730;48.926;11.376;2022-07-22T01:31:05;97637.13;;;16.20
19196;BMP280;9730;48.926;11.376;2022-07-22T01:33:31;97641.91;;;16.12
19196;BMP280;9730;48.926;11.376;2022-07-22T01:35:59;97640.09;;;16.14
19196;BMP280;9730;48.926;11.376;2022-07-22T01:38:28;97639.88;;;16.17
19196;BMP280;9730;48.926;11.376;2022-07-22T01:40:55;97640.19;;;16.13
19196;BMP280;9730;48.926;11.376;2022-07-22T01:43:22;97641.09;;;16.12
19196;BMP280;9730;48.926;11.376;2022-07-22T01:45:51;97637.53;;;16.14
19196;BMP280;9730;48.926;11.376;2022-07-22T01:48:20;97636.00;;;16.12
19196;BMP280;9730;48.926;11.376;2022-07-22T01:50:47;97635.59;;;16.18
19196;BMP280;9730;48.926;11.376;2022-07-22T01:53:15;97637.50;;;15.90
19196;BMP280;9730;48.926;11.376;2022-07-22T01:55:45;97633.53;;;15.86
19196;BMP280;9730;48.926;11.376;2022-07-22T01:58:12;97639.13;;;15.91
19196;BMP280;9730;48.926;11.376;2022-07-22T02:00:39;97634.44;;;15.85
19196;BMP280;9730;48.926;11.376;2022-07-22T02:03:06;97633.91;;;15.67
19196;BMP280;9730;48.926;11.376;2022-07-22T02:05:33;97645.44;;;15.85
19196;BMP280;9730;48.926;11.376;2022-07-22T02:08:07;97632.94;;;15.56
19196;BMP280;9730;48.926;11.376;2022-07-22T02:10:56;97642.56;;;15.77
19196;BMP280;9730;48.926;11.376;2022-07-22T02:13:23;97638.06;;;15.68
19196;BMP280;9730;48.926;11.376;2022-07-22T02:15:49;97633.41;;;15.75
19196;BMP280;9730;48.926;11.376;2022-07-22T02:18:17;97632.88;;;15.70
19196;BMP280;9730;48.926;11.376;2022-07-22T02:20:45;97638.59;;;15.73
19196;BMP280;9730;48.926;11.376;2022-07-22T02:23:12;97635.63;;;15.67
19196;BMP280;9730;48.926;11.376;2022-07-22T02:25:40;97632.06;;;15.69
19196;BMP280;9730;48.926;11.376;2022-07-22T02:28:08;97633.81;;;15.69
19196;BMP280;9730;48.926;11.376;2022-07-22T02:30:35;97638.25;;;15.65
19196;BMP280;9730;48.926;11.376;2022-07-22T02:33:02;97630.75;;;15.64
19196;BMP280;9730;48.926;11.376;2022-07-22T02:35:28;97629.84;;;15.65
19196;BMP280;9730;48.926;11.376;2022-07-22T02:37:55;97627.50;;;15.62
19196;BMP280;9730;48.926;11.376;2022-07-22T02:40:22;97630.31;;;15.57
19196;BMP280;9730;48.926;11.376;2022-07-22T02:42:48;97623.22;;;15.62
19196;BMP280;9730;48.926;11.376;2022-07-22T02:45:16;97629.25;;;15.47
19196;BMP280;9730;48.926;11.376;2022-07-22T02:47:47;97634.53;;;15.44
19196;BMP280;9730;48.926;11.376;2022-07-22T02:50:14;97618.00;;;15.51
19196;BMP280;9730;48.926;11.376;2022-07-22T02:52:41;97629.09;;;15.63
19196;BMP280;9730;48.926;11.376;2022-07-22T02:55:08;97621.97;;;15.55
19196;BMP280;9730;48.926;11.376;2022-07-22T02:57:34;97628.28;;;15.62
19196;BMP280;9730;48.926;11.376;2022-07-22T03:00:03;97631.38;;;15.67
19196;BMP280;9730;48.926;11.376;2022-07-22T03:02:35;97623.81;;;15.53
19196;BMP280;9730;48.926;11.376;2022-07-22T03:05:02;97625.31;;;15.56
19196;BMP280;9730;48.926;11.376;2022-07-22T03:07:29;97634.78;;;15.28
19196;BMP280;9730;48.926;11.376;2022-07-22T03:09:56;97635.13;;;15.36
19196;BMP280;9730;48.926;11.376;2022-07-22T03:12:23;97632.66;;;15.22
19196;BMP280;9730;48.926;11.376;2022-07-22T03:14:50;97633.91;;;15.29
19196;BMP280;9730;48.926;11.376;2022-07-22T03:17:16;97631.94;;;15.58
19196;BMP280;9730;48.926;11.376;2022-07-22T03:19:44;97631.66;;;15.37
19196;BMP280;9730;48.926;11.376;2022-07-22T03:22:11;97632.75;;;15.33
19196;BMP280;9730;48.926;11.376;2022-07-22T03:24:38;97634.53;;;15.44
19196;BMP280;9730;48.926;11.376;2022-07-22T03:27:05;97635.34;;;15.45
19196;BMP280;9730;48.926;11.376;2022-07-22T03:29:31;97626.41;;;15.52
19196;BMP280;9730;48.926;11.376;2022-07-22T03:31:58;97632.94;;;15.56
19196;BMP280;9730;48.926;11.376;2022-07-22T03:34:37;97637.47;;;15.39
19196;BMP280;9730;48.926;11.376;2022-07-22T03:37:07;97634.84;;;15.40
19196;BMP280;9730;48.926;11.376;2022-07-22T03:39:35;97642.72;;;15.49
19196;BMP280;9730;48.926;11.376;2022-07-22T03:42:01;97631.75;;;15.61
19196;BMP280;9730;48.926;11.376;2022-07-22T03:44:30;97639.19;;;15.38
19196;BMP280;9730;48.926;11.376;2022-07-22T03:46:57;97643.94;;;15.56
19196;BMP280;9730;48.926;11.376;2022-07-22T03:49:24;97644.50;;;15.47
19196;BMP280;9730;48.926;11.376;2022-07-22T03:51:51;97643.31;;;15.53
19196;BMP280;9730;48.926;11.376;2022-07-22T03:54:19;97644.50;;;15.47
19196;BMP280;9730;48.926;11.376;2022-07-22T03:56:45;97642.31;;;15.55
19196;BMP280;9730;48.926;11.376;2022-07-22T03:59:14;97646.59;;;15.29
19196;BMP280;9730;48.926;11.376;2022-07-22T04:01:41;97649.59;;;15.47
19196;BMP280;9730;48.926;11.376;2022-07-22T04:04:10;97638.25;;;15.65
19196;BMP280;9730;48.926;11.376;2022-07-22T04:06:40;97642.31;;;15.55
19196;BMP280;9730;48.926;11.376;2022-07-22T04:09:14;97655.31;;;15.25
19196;BMP280;9730;48.926;11.376;2022-07-22T04:11:42;97651.69;;;15.29
19196;BMP280;9730;48.926;11.376;2022-07-22T04:14:10;97646.50;;;15.56
19196;BMP280;9730;48.926;11.376;2022-07-22T04:16:36;97649.03;;;15.56
19196;BMP280;9730;48.926;11.376;2022-07-22T04:19:07;97638.59;;;15.73
19196;BMP280;9730;48.926;11.376;2022-07-22T04:21:46;97642.88;;;15.73
19196;BMP280;9730;48.926;11.376;2022-07-22T04:24:13;97654.16;;;15.43
19196;BMP280;9730;48.926;11.376;2022-07-22T04:26:39;97652.00;;;15.37
19196;BMP280;9730;48.926;11.376;2022-07-22T04:29:07;97642.59;;;15.51
19196;BMP280;9730;48.926;11.376;2022-07-22T04:31:34;97657.03;;;15.50
19196;BMP280;9730;48.926;11.376;2022-07-22T04:34:05;97649.75;;;15.32
19196;BMP280;9730;48.926;11.376;2022-07-22T04:36:31;97654.38;;;15.26
19196;BMP280;9730;48.926;11.376;2022-07-22T04:38:58;97647.41;;;15.55
19196;BMP280;9730;48.926;11.376;2022-07-22T04:41:25;97648.78;;;15.47
19196;BMP280;9730;48.926;11.376;2022-07-22T04:43:52;97646.59;;;15.55
19196;BMP280;9730;48.926;11.376;2022-07-22T04:46:23;97637.16;;;15.69
19196;BMP280;9730;48.926;11.376;2022-07-22T04:48:50;97642.41;;;15.54
19196;BMP280;9730;48.926;11.376;2022-07-22T04:51:16;97643.31;;;15.53
19196;BMP280;9730;48.926;11.376;2022-07-22T04:53:46;97651.47;;;15.58
19196;BMP280;9730;48.926;11.376;2022-07-22T04:56:14;97653.22;;;15.43
19196;BMP280;9730;48.926;11.376;2022-07-22T04:58:40;97641.72;;;15.64
19196;BMP280;9730;48.926;11.376;2022-07-22T05:01:07;97644.09;;;15.67
19196;BMP280;9730;48.926;11.376;2022-07-22T05:03:37;97642.34;;;15.68
19196;BMP280;9730;48.926;11.376;2022-07-22T05:06:04;97641.59;;;15.92
19196;BMP280;9730;48.926;11.376;2022-07-22T05:08:35;97634.91;;;16.16
19196;BMP280;9730;48.926;11.376;2022-07-22T05:11:02;97637.78;;;16.36
19196;BMP280;9730;48.926;11.376;2022-07-22T05:13:29;97630.44;;;16.44
19196;BMP280;9730;48.926;11.376;2022-07-22T05:15:55;97635.94;;;16.50
19196;BMP280;9730;48.926;11.376;2022-07-22T05:18:22;97631.16;;;16.58
19196;BMP280;9730;48.926;11.376;2022-07-22T05:20:50;97631.44;;;16.54
19196;BMP280;9730;48.926;11.376;2022-07-22T05:23:16;97633.56;;;16.72
19196;BMP280;9730;48.926;11.376;2022-07-22T05:25:43;97644.41;;;16.99
19196;BMP280;9730;48.926;11.376;2022-07-22T05:28:09;97631.25;;;16.93
19196;BMP280;9730;48.926;11.376;2022-07-22T05:30:40;97636.66;;;17.01
19196;BMP280;9730;48.926;11.376;2022-07-22T05:33:06;97640.69;;;17.28
19196;BMP280;9730;48.926;11.376;2022-07-22T05:35:53;97634.19;;;17.11
19196;BMP280;9730;48.926;11.376;2022-07-22T05:38:20;97635.38;;;16.83
19196;BMP280;9730;48.926;11.376;2022-07-22T05:40:47;97636.56;;;16.90
19196;BMP280;9730;48.926;11.376;2022-07-22T05:43:14;97641.50;;;16.80
19196;BMP280;9730;48.926;11.376;2022-07-22T05:45:40;97633.59;;;17.08
19196;BMP280;9730;48.926;11.376;2022-07-22T05:48:07;97629.56;;;17.29
19196;BMP280;9730;48.926;11.376;2022-07-22T05:50:35;97637.47;;;17.37
19196;BMP280;9730;48.926;11.376;2022-07-22T05:53:03;97635.59;;;17.51
19196;BMP280;9730;48.926;11.376;2022-07-22T05:55:30;97631.50;;;17.49
19196;BMP280;9730;48.926;11.376;2022-07-22T05:57:57;97636.66;;;17.01
19196;BMP280;9730;48.926;11.376;2022-07-22T06:00:24;97635.13;;;17.57
19196;BMP280;9730;48.926;11.376;2022-07-22T06:02:50;97643.63;;;17.58
19196;BMP280;9730;48.926;11.376;2022-07-22T06:05:19;97634.44;;;18.23
19196;BMP280;9730;48.926;11.376;2022-07-22T06:07:46;97623.84;;;19.37
19196;BMP280;9730;48.926;11.376;2022-07-22T06:10:25;97615.09;;;21.49
19196;BMP280;9730;48.926;11.376;2022-07-22T06:12:52;97609.97;;;22.87
19196;BMP280;9730;48.926;11.376;2022-07-22T06:15:18;97597.59;;;23.79
19196;BMP280;9730;48.926;11.376;2022-07-22T06:17:46;97599.31;;;24.38
19196;BMP280;9730;48.926;11.376;2022-07-22T06:20:13;97596.53;;;24.57
19196;BMP280;9730;48.926;11.376;2022-07-22T06:22:39;97600.38;;;24.53
19196;BMP280;9730;48.926;11.376;2022-07-22T06:25:07;97593.97;;;23.20
19196;BMP280;9730;48.926;11.376;2022-07-22T06:27:35;97595.66;;;23.98
19196;BMP280;9730;48.926;11.376;2022-07-22T06:30:03;97581.88;;;26.19
19196;BMP280;9730;48.926;11.376;2022-07-22T06:32:30;97568.16;;;27.33
19196;BMP280;9730;48.926;11.376;2022-07-22T06:34:56;97572.78;;;27.90
19196;BMP280;9730;48.926;11.376;2022-07-22T06:37:23;97578.75;;;27.90
19196;BMP280;9730;48.926;11.376;2022-07-22T06:39:49;97574.84;;;28.45
19196;BMP280;9730;48.926;11.376;2022-07-22T06:42:23;97572.50;;;28.50
19196;BMP280;9730;48.926;11.376;2022-07-22T06:45:25;97559.91;;;29.67
19196;BMP280;9730;48.926;11.376;2022-07-22T06:48:03;97560.88;;;28.75
19196;BMP280;9730;48.926;11.376;2022-07-22T06:50:30;97565.75;;;27.32
19196;BMP280;9730;48.926;11.376;2022-07-22T06:52:58;97565.91;;;27.60
19196;BMP280;9730;48.926;11.376;2022-07-22T06:55:24;97576.63;;;26.97
19196;BMP280;9730;48.926;11.376;2022-07-22T06:58:08;97574.72;;;27.21
19196;BMP280;9730;48.926;11.376;2022-07-22T07:00:36;97581.69;;;26.82
19196;BMP280;9730;48.926;11.376;2022-07-22T07:03:18;97577.72;;;26.64
19196;BMP280;9730;48.926;11.376;2022-07-22T07:05:44;97575.38;;;25.36
19196;BMP280;9730;48.926;11.376;2022-07-22T07:08:11;97558.34;;;27.73
19196;BMP280;9730;48.926;11.376;2022-07-22T07:10:38;97543.97;;;28.94
19196;BMP280;9730;48.926;11.376;2022-07-22T07:13:09;97540.28;;;29.38
19196;BMP280;9730;48.926;11.376;2022-07-22T07:15:44;97540.84;;;28.69
19196;BMP280;9730;48.926;11.376;2022-07-22T07:18:13;97530.13;;;29.07
19196;BMP280;9730;48.926;11.376;2022-07-22T07:20:39;97526.19;;;30.28
19196;BMP280;9730;48.926;11.376;2022-07-22T07:23:08;97532.94;;;28.92
19196;BMP280;9730;48.926;11.376;2022-07-22T07:25:40;97525.34;;;29.88
19196;BMP280;9730;48.926;11.376;2022-07-22T07:28:07;97516.69;;;30.88
19196;BMP280;9730;48.926;11.376;2022-07-22T07:30:49;97518.03;;;30.71
19196;BMP280;9730;48.926;11.376;2022-07-22T07:33:16;97513.56;;;30.19
19196;BMP280;9730;48.926;11.376;2022-07-22T07:35:43;97511.88;;;31.58
19196;BMP280;9730;48.926;11.376;2022-07-22T07:38:10;97503.66;;;31.93
19196;BMP280;9730;48.926;11.376;2022-07-22T07:40:40;97507.06;;;30.82
19196;BMP280;9730;48.926;11.376;2022-07-22T07:43:06;97521.03;;;27.96
19196;BMP280;9730;48.926;11.376;2022-07-22T07:45:34;97518.94;;;28.43
19196;BMP280;9730;48.926;11.376;2022-07-22T07:48:03;97492.72;;;31.06
19196;BMP280;9730;48.926;11.376;2022-07-22T07:50:30;97507.72;;;30.17
19196;BMP280;9730;48.926;11.376;2022-07-22T07:52:57;97507.53;;;30.18
19196;BMP280;9730;48.926;11.376;2022-07-22T07:55:26;97493.34;;;31.08
19196;BMP280;9730;48.926;11.376;2022-07-22T07:57:52;97483.78;;;32.11
19196;BMP280;9730;48.926;11.376;2022-07-22T08:00:22;97482.94;;;32.17
19196;BMP280;9730;48.926;11.376;2022-07-22T08:02:50;97482.69;;;32.38
19196;BMP280;9730;48.926;11.376;2022-07-22T08:05:18;97484.72;;;30.54
19196;BMP280;9730;48.926;11.376;2022-07-22T08:07:47;97470.81;;;33.60
19196;BMP280;9730;48.926;11.376;2022-07-22T08:10:15;97459.41;;;36.01
19196;BMP280;9730;48.926;11.376;2022-07-22T08:13:00;97457.22;;;36.32
19196;BMP280;9730;48.926;11.376;2022-07-22T08:15:49;97454.28;;;37.40
19196;BMP280;9730;48.926;11.376;2022-07-22T08:18:19;97452.06;;;37.48
19196;BMP280;9730;48.926;11.376;2022-07-22T08:20:47;97477.81;;;32.61
19196;BMP280;9730;48.926;11.376;2022-07-22T08:23:15;97474.13;;;33.18
19196;BMP280;9730;48.926;11.376;2022-07-22T08:25:44;97455.38;;;35.64
19196;BMP280;9730;48.926;11.376;2022-07-22T08:28:10;97452.66;;;35.82
19196;BMP280;9730;48.926;11.376;2022-07-22T08:30:38;97442.63;;;37.20
19196;BMP280;9730;48.926;11.376;2022-07-22T08:33:05;97454.44;;;38.36
19196;BMP280;9730;48.926;11.376;2022-07-22T08:35:32;97446.63;;;37.87
19196;BMP280;9730;48.926;11.376;2022-07-22T08:38:00;97456.25;;;36.50
19196;BMP280;9730;48.926;11.376;2022-07-22T08:40:27;97453.19;;;37.36
19196;BMP280;9730;48.926;11.376;2022-07-22T08:42:55;97472.59;;;34.08
19196;BMP280;9730;48.926;11.376;2022-07-22T08:45:22;97446.84;;;37.21
19196;BMP280;9730;48.926;11.376;2022-07-22T08:47:51;97443.81;;;36.84
19196;BMP280;9730;48.926;11.376;2022-07-22T08:50:18;97433.97;;;36.91
19196;BMP280;9730;48.926;11.376;2022-07-22T08:53:02;97452.91;;;35.17
19196;BMP280;9730;48.926;11.376;2022-07-22T08:55:30;97456.31;;;33.02
19196;BMP280;9730;48.926;11.376;2022-07-22T08:57:57;97455.78;;;32.44
19196;BMP280;9730;48.926;11.376;2022-07-22T09:00:23;97441.47;;;35.75
19196;BMP280;9730;48.926;11.376;2022-07-22T09:02:50;97422.41;;;36.92
19196;BMP280;9730;48.926;11.376;2022-07-22T09:05:17;97423.75;;;36.78
19196;BMP280;9730;48.926;11.376;2022-07-22T09:07:48;97429.94;;;36.33
19196;BMP280;9730;48.926;11.376;2022-07-22T09:10:30;97450.66;;;33.85
19196;BMP280;9730;48.926;11.376;2022-07-22T09:13:16;97430.25;;;35.23
19196;BMP280;9730;48.926;11.376;2022-07-22T09:15:58;97423.28;;;36.81
19196;BMP280;9730;48.926;11.376;2022-07-22T09:18:47;97411.34;;;39.21
19196;BMP280;9730;48.926;11.376;2022-07-22T09:21:28;97431.94;;;35.17
19196;BMP280;9730;48.926;11.376;2022-07-22T09:24:29;97412.50;;;37.92
19196;BMP280;9730;48.926;11.376;2022-07-22T09:27:22;97406.53;;;40.27
19196;BMP280;9730;48.926;11.376;2022-07-22T09:30:11;97401.19;;;41.08
19196;BMP280;9730;48.926;11.376;2022-07-22T09:32:45;97428.16;;;35.88
19196;BMP280;9730;48.926;11.376;2022-07-22T09:35:21;97434.50;;;35.47
19196;BMP280;9730;48.926;11.376;2022-07-22T09:37:53;97431.38;;;34.57
19196;BMP280;9730;48.926;11.376;2022-07-22T09:40:22;97414.69;;;35.39
19196;BMP280;9730;48.926;11.376;2022-07-22T09:42:53;97396.94;;;36.93
19196;BMP280;9730;48.926;11.376;2022-07-22T09:45:21;97409.66;;;35.49
19196;BMP280;9730;48.926;11.376;2022-07-22T09:47:49;97399.59;;;34.53
19196;BMP280;9730;48.926;11.376;2022-07-22T09:50:27;97384.47;;;37.32
19196;BMP280;9730;48.926;11.376;2022-07-22T09:53:17;97369.59;;;40.47
19196;BMP280;9730;48.926;11.376;2022-07-22T09:55:55;97371.84;;;41.14
19196;BMP280;9730;48.926;11.376;2022-07-22T09:58:23;97381.31;;;40.09
19196;BMP280;9730;48.926;11.376;2022-07-22T10:00:51;97388.88;;;36.83
19196;BMP280;9730;48.926;11.376;2022-07-22T10:03:25;97388.94;;;38.24
19196;BMP280;9730;48.926;11.376;2022-07-22T10:05:53;97368.31;;;39.93
19196;BMP280;9730;48.926;11.376;2022-07-22T10:08:21;97364.38;;;40.61
19196;BMP280;9730;48.926;11.376;2022-07-22T10:10:48;97385.16;;;35.55
19196;BMP280;9730;48.926;11.376;2022-07-22T10:13:17;97385.19;;;34.27
19196;BMP280;9730;48.926;11.376;2022-07-22T10:15:46;97371.91;;;35.96
19196;BMP280;9730;48.926;11.376;2022-07-22T10:18:15;97359.41;;;37.79
19196;BMP280;9730;48.926;11.376;2022-07-22T10:20:44;97368.06;;;38.17
19196;BMP280;9730;48.926;11.376;2022-07-22T10:23:12;97357.53;;;40.04
19196;BMP280;9730;48.926;11.376;2022-07-22T10:25:50;97361.56;;;39.30
19196;BMP280;9730;48.926;11.376;2022-07-22T10:28:22;97391.41;;;34.61
19196;BMP280;9730;48.926;11.376;2022-07-22T10:30:51;97395.38;;;31.77
19196;BMP280;9730;48.926;11.376;2022-07-22T10:33:19;97366.09;;;35.14
19196;BMP280;9730;48.926;11.376;2022-07-22T10:35:54;97356.97;;;36.91
19196;BMP280;9730;48.926;11.376;2022-07-22T10:38:21;97347.34;;;38.73
19196;BMP280;9730;48.926;11.376;2022-07-22T10:40:50;97348.03;;;38.37
19196;BMP280;9730;48.926;11.376;2022-07-22T10:43:18;97351.94;;;37.71
19196;BMP280;9730;48.926;11.376;2022-07-22T10:45:47;97369.09;;;34.88
19196;BMP280;9730;48.926;11.376;2022-07-22T10:48:19;97360.47;;;34.99
19196;BMP280;9730;48.926;11.376;2022-07-22T10:51:10;97348.59;;;36.94
19196;BMP280;9730;48.926;11.376;2022-07-22T10:53:42;97336.22;;;37.76
19196;BMP280;9730;48.926;11.376;2022-07-22T10:56:24;97341.09;;;36.03
19196;BMP280;9730;48.926;11.376;2022-07-22T10:59:00;97347.94;;;35.01
19196;BMP280;9730;48.926;11.376;2022-07-22T11:01:33;97383.34;;;29.87
19196;BMP280;9730;48.926;11.376;2022-07-22T11:04:13;97349.09;;;32.91
19196;BMP280;9730;48.926;11.376;2022-07-22T11:06:40;97343.28;;;33.62
19196;BMP280;9730;48.926;11.376;2022-07-22T11:09:09;97325.28;;;35.75
19196;BMP280;9730;48.926;11.376;2022-07-22T11:11:41;97328.94;;;35.85
19196;BMP280;9730;48.926;11.376;2022-07-22T11:14:13;97317.34;;;36.09
19196;BMP280;9730;48.926;11.376;2022-07-22T11:16:40;97308.59;;;37.41
19196;BMP280;9730;48.926;11.376;2022-07-22T11:19:07;97302.25;;;37.96
19196;BMP280;9730;48.926;11.376;2022-07-22T11:21:35;97307.34;;;36.94
19196;BMP280;9730;48.926;11.376;2022-07-22T11:24:04;97309.88;;;35.90
19196;BMP280;9730;48.926;11.376;2022-07-22T11:26:39;97313.63;;;34.91
19196;BMP280;9730;48.926;11.376;2022-07-22T11:29:06;97318.56;;;34.58
19196;BMP280;9730;48.926;11.376;2022-07-22T11:31:33;97316.19;;;34.68
19196;BMP280;9730;48.926;11.376;2022-07-22T11:34:08;97307.91;;;34.13
19196;BMP280;9730;48.926;11.376;2022-07-22T11:36:37;97300.91;;;34.25
19196;BMP280;9730;48.926;11.376;2022-07-22T11:39:04;97304.13;;;33.73
19196;BMP280;9730;48.926;11.376;2022-07-22T11:41:31;97295.94;;;33.88
19196;BMP280;9730;48.926;11.376;2022-07-22T11:43:58;97294.50;;;34.50
19196;BMP280;9730;48.926;11.376;2022-07-22T11:46:26;97290.56;;;33.65
19196;BMP280;9730;48.926;11.376;2022-07-22T11:48:53;97288.31;;;33.50
19196;BMP280;9730;48.926;11.376;2022-07-22T11:51:27;97289.91;;;33.09
19196;BMP280;9730;48.926;11.376;2022-07-22T11:53:56;97277.78;;;33.15
19196;BMP280;9730;48.926;11.376;2022-07-22T11:56:24;97269.94;;;34.22
19196;BMP280;9730;48.926;11.376;2022-07-22T11:58:51;97265.91;;;34.37
19196;BMP280;9730;48.926;11.376;2022-07-22T12:01:20;97269.16;;;34.62
19196;BMP280;9730;48.926;11.376;2022-07-22T12:03:49;97261.38;;;33.68
19196;BMP280;9730;48.926;11.376;2022-07-22T12:06:17;97263.66;;;33.76
19196;BMP280;9730;48.926;11.376;2022-07-22T12:08:46;97262.25;;;34.09
19196;BMP280;9730;48.926;11.376;2022-07-22T12:11:16;97253.19;;;33.93
19196;BMP280;9730;48.926;11.376;2022-07-22T12:13:44;97253.63;;;33.90
19196;BMP280;9730;48.926;11.376;2022-07-22T12:16:22;97252.75;;;33.96
19196;BMP280;9730;48.926;11.376;2022-07-22T12:18:55;97266.00;;;32.81
19196;BMP280;9730;48.926;11.376;2022-07-22T12:21:22;97259.25;;;32.13
19196;BMP280;9730;48.926;11.376;2022-07-22T12:23:53;97249.66;;;32.37
19196;BMP280;9730;48.926;11.376;2022-07-22T12:26:40;97236.56;;;33.34
19196;BMP280;9730;48.926;11.376;2022-07-22T12:29:22;97234.13;;;33.75
19196;BMP280;9730;48.926;11.376;2022-07-22T12:31:51;97230.72;;;34.33
19196;BMP280;9730;48.926;11.376;2022-07-22T12:34:29;97235.16;;;32.96
19196;BMP280;9730;48.926;11.376;2022-07-22T12:36:56;97224.09;;;33.36
19196;BMP280;9730;48.926;11.376;2022-07-22T12:39:23;97218.50;;;33.69
19196;BMP280;9730;48.926;11.376;2022-07-22T12:41:53;97232.63;;;31.41
19196;BMP280;9730;48.926;11.376;2022-07-22T12:44:21;97228.84;;;31.44
19196;BMP280;9730;48.926;11.376;2022-07-22T12:46:50;97241.56;;;30.57
19196;BMP280;9730;48.926;11.376;2022-07-22T12:49:19;97228.91;;;31.81
19196;BMP280;9730;48.926;11.376;2022-07-22T12:52:06;97227.47;;;31.85
19196;BMP280;9730;48.926;11.376;2022-07-22T12:54:33;97223.41;;;31.58
19196;BMP280;9730;48.926;11.376;2022-07-22T12:57:01;97217.28;;;32.14
19196;BMP280;9730;48.926;11.376;2022-07-22T12:59:27;97212.88;;;32.70
19196;BMP280;9730;48.926;11.376;2022-07-22T13:01:54;97212.81;;;32.27
19196;BMP280;9730;48.926;11.376;2022-07-22T13:04:20;97214.19;;;32.30
19196;BMP280;9730;48.926;11.376;2022-07-22T13:06:47;97206.91;;;32.87
19196;BMP280;9730;48.926;11.376;2022-07-22T13:09:14;97204.69;;;33.08
19196;BMP280;9730;48.926;11.376;2022-07-22T13:11:41;97193.31;;;33.21
19196;BMP280;9730;48.926;11.376;2022-07-22T13:14:11;97193.91;;;33.40
19196;BMP280;9730;48.926;11.376;2022-07-22T13:16:37;97192.69;;;33.25
19196;BMP280;9730;48.926;11.376;2022-07-22T13:19:04;97196.47;;;32.87
19196;BMP280;9730;48.926;11.376;2022-07-22T13:21:31;97184.13;;;33.18
19196;BMP280;9730;48.926;11.376;2022-07-22T13:23:57;97179.84;;;33.24
19196;BMP280;9730;48.926;11.376;2022-07-22T13:26:24;97190.50;;;32.80
19196;BMP280;9730;48.926;11.376;2022-07-22T13:28:51;97178.34;;;32.92
19196;BMP280;9730;48.926;11.376;2022-07-22T13:31:19;97173.22;;;33.03
19196;BMP280;9730;48.926;11.376;2022-07-22T13:33:45;97179.34;;;32.91
19196;BMP280;9730;48.926;11.376;2022-07-22T13:36:12;97172.41;;;32.61
19196;BMP280;9730;48.926;11.376;2022-07-22T13:38:38;97179.41;;;32.84
19196;BMP280;9730;48.926;11.376;2022-07-22T13:41:04;97172.28;;;32.98
19196;BMP280;9730;48.926;11.376;2022-07-22T13:43:41;97169.59;;;32.62
19196;BMP280;9730;48.926;11.376;2022-07-22T13:46:08;97172.97;;;32.63
19196;BMP280;9730;48.926;11.376;2022-07-22T13:48:36;97168.81;;;31.63
19196;BMP280;9730;48.926;11.376;2022-07-22T13:51:03;97180.72;;;31.90
19196;BMP280;9730;48.926;11.376;2022-07-22T13:53:30;97170.94;;;32.40
19196;BMP280;9730;48.926;11.376;2022-07-22T13:55:56;97176.06;;;32.29
19196;BMP280;9730;48.926;11.376;2022-07-22T13:58:23;97166.66;;;31.97
19196;BMP280;9730;48.926;11.376;2022-07-22T14:00:49;97169.59;;;31.70
19196;BMP280;9730;48.926;11.376;2022-07-22T14:03:16;97172.19;;;31.76
19196;BMP280;9730;48.926;11.376;2022-07-22T14:05:44;97167.19;;;31.75
19196;BMP280;9730;48.926;11.376;2022-07-22T14:08:11;97164.88;;;31.91
19196;BMP280;9730;48.926;11.376;2022-07-22T14:10:37;97161.13;;;31.81
19196;BMP280;9730;48.926;11.376;2022-07-22T14:13:04;97166.81;;;32.33
19196;BMP280;9730;48.926;11.376;2022-07-22T14:15:32;97156.44;;;31.89
19196;BMP280;9730;48.926;11.376;2022-07-22T14:17:58;97148.63;;;32.51
19196;BMP280;9730;48.926;11.376;2022-07-22T14:20:25;97142.41;;;32.70